KBIS/BIS METAR and TAF weather

Enter ICAO airport designator
Station Type Date Time Source
KBIS METAR 2020/02/21 14:52 UTC NOAA

KBIS 211452Z 00000KT 10SM CLR M07/M13 A3007 RMK AO2 SLP211 T10721128 53008


Station Type Date Time Source
KBIS Decoded METAR 2020/02/21 14:52 UTC NOAA

BISMARCK MUNICIPAL AIRPORT, ND, United States (KBIS) 46-47N 100-45W 503M
Feb 21, 2020 - 09:52 AM EST / 2020.02.21 1452 UTC
Wind: Calm:0
Visibility: 10 mile(s):0
Sky conditions: clear
Temperature: 19.0 F (-7.2 C)
Dew Point: 9.0 F (-12.8 C)
Relative Humidity: 64%
Pressure (altimeter): 30.07 in. Hg (1018 hPa)
Pressure tendency: 0.02 inches (0.8 hPa) higher than three hours ago
ob: KBIS 211452Z 00000KT 10SM CLR M07/M13 A3007 RMK AO2 SLP211 T10721128 53008
cycle: 15

Station Type Date Time Source
KBIS TAF 2020/02/21 12:24 UTC NOAA

TAF KBIS 211123Z 2112/2212 26009KT P6SM SKC WS020/30035KT
FM211300 27012KT P6SM SKC
FM220000 20005KT P6SM SKC
FM220400 VRB04KT P6SM SCT003

Example: see airport list